Gatlinburg, TN

2:34 PM EDT on June 02, 2015 (GMT -0400)
South Pigeon Forge | | Change Station
CLOSE
Current Station
Personal Weather Station
Location: Pigeon Forge, TN
Elevation: 1224 ft
Nearby Weather Stations

Elev 1224 ft 35.76 °N, 83.57 °W | Updated 11 minutes ago

Overcast
Overcast
74.8 °F
Feels Like 75 °F
N
0.0
Wind Variable Wind from NE

Today
High -- | Low -- °F
--% Chance of Precip.
Yesterday
High -- | Low -- °F
Precip. -- in
6:19 AM 8:45 PM
Full, 100% visible
Pressure 30.00 in
Visibility 10.0 miles
Clouds Scattered Clouds 2700 ft
Scattered Clouds 20000 ft
Scattered Clouds 25000 ft
Heat Index 75 °F
Dew Point 69 °F
Humidity 83%
Rainfall 0.05 in
Snow Depth Not available.
UV 10 out of 12
Pollen 4.40 out of 12
Air Quality Not available.
Flu Activity Sporadic
METAR KTYS 021753Z VRB03KT 10SM SCT027 SCT200 SCT250 26/15 A3000

More Conditions Fewer Conditions

Pressure 30.00 in
Visibility 10.0 miles
Clouds Scattered Clouds 2700 ft
Scattered Clouds 20000 ft
Scattered Clouds 25000 ft
Heat Index 75 °F
Dew Point 69 °F
Humidity 83%
Rainfall 0.05 in
Snow Depth Not available.
UV 10 out of 12
Pollen 4.40 out of 12
Air Quality Not available.
Flu Activity Sporadic
METAR KTYS 021753Z VRB03KT 10SM SCT027 SCT200 SCT250 26/15 A3000

More Conditions Fewer Conditions

10-Day Weather Forecast

×

Almanac

Astronomy

Jun. 02, 2015 Rise Set
Actual Time
Civil Twilight
Nautical Twilight
Astronomical Twilight
Moon
Length of Visible Light
Length of Day
Tomorrow will be .
, % of the Moon is Illuminated

Today's Extremes

State Highs State Lows

Community

WunderPhotos

Upload Photos

1,825,997 photos uploaded!

WunderBlogs® & News

Nearby

Air Quality

  Air Quality AQ Index Pollutant
Not available.

Snow Depth

Station Depth Elevation

Earthquake Activity

City Distance Mag. Time & Date
Minimum magnitude displayed is 2.5.

Coastal Water Temperatures

Place Temperature

Stations

Nearby Weather Stations

Station Location Temp. Windchill Dew Point Humidity Wind Precip. Elev Updated Type